createdAt,value
2023-05-01T00:02:35.796Z,19.64
2023-05-01T00:05:07.485Z,19.62
2023-05-01T00:07:38.313Z,19.62
2023-05-01T00:10:12.006Z,19.62
2023-05-01T00:12:42.963Z,19.63
2023-05-01T00:15:14.567Z,19.61
2023-05-01T00:17:45.348Z,19.62
2023-05-01T00:20:16.428Z,19.62
2023-05-01T00:22:47.803Z,19.62
2023-05-01T00:25:18.830Z,19.62
2023-05-01T00:27:49.557Z,19.62
2023-05-01T00:30:20.494Z,19.62
2023-05-01T00:32:51.298Z,19.62
2023-05-01T00:35:22.741Z,19.61
2023-05-01T00:37:53.392Z,19.60
2023-05-01T00:40:24.498Z,19.60
2023-05-01T00:42:55.735Z,19.59
2023-05-01T00:45:26.518Z,19.59
2023-05-01T00:47:57.610Z,19.59
2023-05-01T00:50:28.373Z,19.59
2023-05-01T00:52:59.226Z,19.59
2023-05-01T00:55:32.378Z,19.58
2023-05-01T00:58:04.933Z,19.58
2023-05-01T01:00:35.692Z,19.57
2023-05-01T01:03:06.766Z,19.57
2023-05-01T01:05:43.217Z,19.56
2023-05-01T01:08:21.973Z,19.56
2023-05-01T01:11:00.983Z,19.55
2023-05-01T01:13:41.686Z,19.54
2023-05-01T01:16:20.411Z,19.54
2023-05-01T01:19:00.795Z,19.53
2023-05-01T01:21:36.407Z,19.54
2023-05-01T01:24:36.562Z,19.54
2023-05-01T01:27:32.155Z,19.55
2023-05-01T01:30:29.485Z,19.55
2023-05-01T01:33:30.380Z,19.55
2023-05-01T01:36:08.176Z,19.56
2023-05-01T01:38:43.557Z,19.56
2023-05-01T01:41:21.164Z,19.57
2023-05-01T01:44:00.119Z,19.55
2023-05-01T01:46:36.823Z,19.56
2023-05-01T01:49:13.049Z,19.56
2023-05-01T01:51:46.190Z,19.57
2023-05-01T01:54:20.859Z,19.56
2023-05-01T01:56:53.481Z,19.56
2023-05-01T01:59:25.333Z,19.56
2023-05-01T02:01:59.949Z,19.56
2023-05-01T02:04:31.582Z,19.56
2023-05-01T02:07:04.162Z,19.56
2023-05-01T02:09:38.482Z,19.56
2023-05-01T02:12:12.314Z,19.56
2023-05-01T02:14:44.265Z,19.55
2023-05-01T02:17:17.183Z,19.54
2023-05-01T02:19:49.009Z,19.53
2023-05-01T02:22:22.829Z,19.51
2023-05-01T02:24:54.769Z,19.53
2023-05-01T02:27:31.074Z,19.53
2023-05-01T02:30:02.135Z,19.52
2023-05-01T02:32:33.189Z,19.53
2023-05-01T02:35:04.176Z,19.53
2023-05-01T02:37:34.984Z,19.51
2023-05-01T02:40:07.710Z,19.53
2023-05-01T02:42:40.186Z,19.52
2023-05-01T02:45:19.187Z,19.51
2023-05-01T02:47:52.637Z,19.51
2023-05-01T02:50:24.838Z,19.50
2023-05-01T02:52:56.132Z,19.50
2023-05-01T02:55:27.331Z,19.51
2023-05-01T02:58:01.612Z,19.52
2023-05-01T03:00:32.689Z,19.52
2023-05-01T03:03:03.750Z,19.52
2023-05-01T03:05:34.776Z,19.51
2023-05-01T03:08:05.931Z,19.51
2023-05-01T03:10:36.848Z,19.51
2023-05-01T03:13:08.382Z,19.50
2023-05-01T03:15:39.697Z,19.49
2023-05-01T03:18:10.628Z,19.48
2023-05-01T03:20:41.603Z,19.48
2023-05-01T03:23:12.651Z,19.47
2023-05-01T03:25:43.500Z,19.47
2023-05-01T03:28:14.275Z,19.47
2023-05-01T03:30:45.121Z,19.46
2023-05-01T03:33:15.875Z,19.45
2023-05-01T03:35:46.682Z,19.45
2023-05-01T03:38:17.561Z,19.45
2023-05-01T03:40:48.178Z,19.44
2023-05-01T03:43:19.048Z,19.44
2023-05-01T03:45:49.751Z,19.43
2023-05-01T03:48:21.380Z,19.43
2023-05-01T03:50:52.468Z,19.43
2023-05-01T03:53:23.543Z,19.42
2023-05-01T03:55:57.601Z,19.42
2023-05-01T03:58:28.632Z,19.42
2023-05-01T04:01:01.081Z,19.42
2023-05-01T04:03:32.318Z,19.42
2023-05-01T04:06:03.769Z,19.41
2023-05-01T04:08:34.431Z,19.41
2023-05-01T04:11:05.136Z,19.42
2023-05-01T04:13:36.024Z,19.42
2023-05-01T04:16:08.017Z,19.41
2023-05-01T04:18:38.708Z,19.42
2023-05-01T04:21:09.468Z,19.41
2023-05-01T04:23:40.662Z,19.42
2023-05-01T04:26:11.802Z,19.44
2023-05-01T04:28:43.126Z,19.44
2023-05-01T04:31:13.868Z,19.44
2023-05-01T04:33:44.600Z,19.44
2023-05-01T04:36:15.324Z,19.44
2023-05-01T04:38:46.058Z,19.44
2023-05-01T04:41:16.887Z,19.43
2023-05-01T04:43:47.533Z,19.43
2023-05-01T04:46:18.418Z,19.43
2023-05-01T04:48:49.236Z,19.42
2023-05-01T04:51:20.655Z,19.42
2023-05-01T04:53:52.129Z,19.41
2023-05-01T04:56:22.868Z,19.40
2023-05-01T04:58:54.150Z,19.40
2023-05-01T05:01:25.046Z,19.40
2023-05-01T05:03:56.574Z,19.40
2023-05-01T05:06:27.968Z,19.40
2023-05-01T05:08:58.763Z,19.39
2023-05-01T05:11:29.553Z,19.39
2023-05-01T05:14:00.619Z,19.38
2023-05-01T05:16:31.948Z,19.39
2023-05-01T05:19:03.297Z,19.38
2023-05-01T05:21:33.998Z,19.37
2023-05-01T05:24:05.080Z,19.38
2023-05-01T05:26:35.744Z,19.38
2023-05-01T05:29:06.464Z,19.38
2023-05-01T05:31:37.525Z,19.38
2023-05-01T05:34:08.452Z,19.38
2023-05-01T05:36:39.702Z,19.38
2023-05-01T05:39:10.380Z,19.39
2023-05-01T05:41:41.232Z,19.39
2023-05-01T05:44:12.216Z,19.38
2023-05-01T05:46:43.092Z,19.38
2023-05-01T05:49:13.910Z,19.39
2023-05-01T05:51:44.697Z,19.39
2023-05-01T05:54:16.290Z,19.39
2023-05-01T05:56:47.035Z,19.40
2023-05-01T05:59:18.513Z,19.40
2023-05-01T06:01:49.493Z,19.38
2023-05-01T06:04:20.517Z,19.40
2023-05-01T06:06:51.366Z,19.41
2023-05-01T06:09:22.372Z,19.42
2023-05-01T06:11:53.545Z,19.42
2023-05-01T06:14:24.587Z,19.43
2023-05-01T06:16:55.475Z,19.45
2023-05-01T06:19:26.841Z,19.46
2023-05-01T06:21:57.732Z,19.45
2023-05-01T06:24:28.620Z,19.46
2023-05-01T06:27:01.349Z,19.46
2023-05-01T06:29:32.843Z,19.46
2023-05-01T06:32:05.950Z,19.46
2023-05-01T06:34:36.656Z,19.46
2023-05-01T06:37:07.949Z,19.46
2023-05-01T06:39:38.776Z,19.46
2023-05-01T06:42:12.103Z,19.46
2023-05-01T06:44:42.833Z,19.47
2023-05-01T06:47:13.808Z,19.48
2023-05-01T06:49:44.807Z,19.50
2023-05-01T06:52:15.507Z,19.51
2023-05-01T06:54:46.285Z,19.53
2023-05-01T06:57:17.232Z,19.53
2023-05-01T06:59:47.889Z,19.54
2023-05-01T07:02:19.680Z,19.54
2023-05-01T07:04:50.672Z,19.55
2023-05-01T07:07:21.436Z,19.52
2023-05-01T07:09:52.253Z,19.52
2023-05-01T07:12:23.515Z,19.51
2023-05-01T07:14:54.831Z,19.50
2023-05-01T07:17:25.801Z,19.48
2023-05-01T07:19:56.982Z,19.48
2023-05-01T07:22:29.053Z,19.48
2023-05-01T07:25:01.310Z,19.47
2023-05-01T07:27:32.645Z,19.46
2023-05-01T07:30:05.199Z,19.45
2023-05-01T07:32:36.207Z,19.47
2023-05-01T07:35:08.744Z,19.47
2023-05-01T07:37:39.685Z,19.47
2023-05-01T07:40:12.537Z,19.46
2023-05-01T07:42:43.308Z,19.47
2023-05-01T07:45:14.836Z,19.45
2023-05-01T07:47:45.863Z,19.44
2023-05-01T07:50:17.136Z,19.45
2023-05-01T07:52:47.933Z,19.45
2023-05-01T07:55:19.338Z,19.45
2023-05-01T07:57:50.707Z,19.43
2023-05-01T08:00:22.908Z,19.45
2023-05-01T08:02:54.438Z,19.45
2023-05-01T08:05:25.650Z,19.44
2023-05-01T08:07:56.525Z,19.43
2023-05-01T08:10:28.708Z,19.42
2023-05-01T08:12:59.700Z,19.41
2023-05-01T08:15:30.754Z,19.41
2023-05-01T08:18:01.865Z,19.41
2023-05-01T08:20:33.213Z,19.41
2023-05-01T08:23:04.171Z,19.42
2023-05-01T08:25:34.926Z,19.42
2023-05-01T08:28:06.335Z,19.41
2023-05-01T08:30:37.120Z,19.40
2023-05-01T08:33:08.244Z,19.39
2023-05-01T08:35:39.224Z,19.40
2023-05-01T08:38:10.012Z,19.40
2023-05-01T08:40:45.236Z,19.40
2023-05-01T08:43:16.876Z,19.39
2023-05-01T08:45:51.044Z,19.37
2023-05-01T08:48:23.430Z,19.37
2023-05-01T08:50:57.069Z,19.35
2023-05-01T08:53:28.657Z,19.35
2023-05-01T08:56:01.920Z,19.36
2023-05-01T08:58:34.778Z,19.34
2023-05-01T09:01:06.197Z,19.33
2023-05-01T09:03:38.569Z,19.34
2023-05-01T09:06:11.081Z,19.34
2023-05-01T09:08:42.069Z,19.34
2023-05-01T09:11:14.756Z,19.35
2023-05-01T09:13:45.701Z,19.35
2023-05-01T09:16:16.841Z,19.33
2023-05-01T09:18:48.404Z,19.32
2023-05-01T09:21:20.057Z,19.31
2023-05-01T09:23:53.694Z,19.28
2023-05-01T09:26:24.717Z,19.29
2023-05-01T09:28:58.421Z,19.29
2023-05-01T09:31:32.842Z,19.29
2023-05-01T09:34:05.124Z,19.29
2023-05-01T09:36:37.794Z,19.30
2023-05-01T09:39:08.861Z,19.30
2023-05-01T09:41:53.655Z,19.31
2023-05-01T09:44:25.638Z,19.30
2023-05-01T09:46:56.552Z,19.30
2023-05-01T09:49:48.395Z,19.30
2023-05-01T09:52:19.596Z,19.30
2023-05-01T09:54:50.697Z,19.32
2023-05-01T09:57:38.495Z,19.32
2023-05-01T10:00:12.448Z,19.32
2023-05-01T10:02:45.191Z,19.31
2023-05-01T10:05:19.676Z,19.34
2023-05-01T10:08:02.521Z,19.33
2023-05-01T10:10:33.493Z,19.33
2023-05-01T10:13:16.710Z,19.34
2023-05-01T10:15:48.134Z,19.34
2023-05-01T10:18:21.884Z,19.34
2023-05-01T10:20:51.733Z,19.34
2023-05-01T10:23:22.828Z,19.30
2023-05-01T10:25:55.367Z,19.33
2023-05-01T10:28:28.873Z,19.32
2023-05-01T10:31:00.832Z,19.32
2023-05-01T10:33:32.085Z,19.33
2023-05-01T10:36:04.606Z,19.34
2023-05-01T10:38:36.663Z,19.35
2023-05-01T10:41:09.324Z,19.36
2023-05-01T10:43:40.328Z,19.36
2023-05-01T10:46:31.802Z,19.36
2023-05-01T10:49:03.864Z,19.37
2023-05-01T10:51:34.895Z,19.36
2023-05-01T10:54:27.098Z,19.37
2023-05-01T10:57:01.361Z,19.37
2023-05-01T11:00:10.033Z,19.36
2023-05-01T11:02:41.364Z,19.37
2023-05-01T11:05:12.250Z,19.38
2023-05-01T11:07:43.006Z,19.39
2023-05-01T11:10:29.932Z,19.40
2023-05-01T11:13:01.107Z,19.40
2023-05-01T11:15:35.533Z,19.39
2023-05-01T11:18:07.634Z,19.40
2023-05-01T11:20:53.923Z,19.41
2023-05-01T11:23:26.924Z,19.40
2023-05-01T11:26:06.874Z,19.40
2023-05-01T11:28:36.900Z,19.40
2023-05-01T11:31:07.802Z,19.39
2023-05-01T11:33:38.633Z,19.41
2023-05-01T11:36:10.407Z,19.41
2023-05-01T11:38:50.353Z,19.41
2023-05-01T11:41:21.025Z,19.41
2023-05-01T11:43:56.429Z,19.40
2023-05-01T11:46:31.007Z,19.40
2023-05-01T11:49:03.467Z,19.41
2023-05-01T11:51:34.273Z,19.40
2023-05-01T11:54:06.557Z,19.40
2023-05-01T11:56:40.992Z,19.39
2023-05-01T11:59:17.127Z,19.40
2023-05-01T12:01:48.812Z,19.40
2023-05-01T12:04:30.704Z,19.41
2023-05-01T12:07:03.636Z,19.41
2023-05-01T12:09:35.133Z,19.42
2023-05-01T12:12:07.326Z,19.42
2023-05-01T12:14:38.618Z,19.42
2023-05-01T12:17:12.298Z,19.43
2023-05-01T12:19:51.267Z,19.43
2023-05-01T12:22:23.260Z,19.43
2023-05-01T12:24:54.853Z,19.44
2023-05-01T12:27:26.032Z,19.45
2023-05-01T12:29:56.899Z,19.44
2023-05-01T12:32:35.313Z,19.44
2023-05-01T12:35:17.501Z,19.45
2023-05-01T12:37:48.768Z,19.46
2023-05-01T12:40:20.202Z,19.47
2023-05-01T12:42:58.142Z,19.47
2023-05-01T12:45:29.364Z,19.50
2023-05-01T12:48:00.587Z,19.52
2023-05-01T12:50:37.389Z,19.53
2023-05-01T12:53:09.786Z,19.53
2023-05-01T12:55:49.259Z,19.54
2023-05-01T12:58:21.130Z,19.55
2023-05-01T13:00:53.740Z,19.57
2023-05-01T13:03:28.216Z,19.58
2023-05-01T13:06:00.849Z,19.58
2023-05-01T13:08:33.587Z,19.59
2023-05-01T13:11:13.668Z,19.60
2023-05-01T13:13:46.103Z,19.61
2023-05-01T13:16:18.173Z,19.63
2023-05-01T13:18:51.830Z,19.64
2023-05-01T13:21:24.513Z,19.68
2023-05-01T13:24:02.793Z,19.69
2023-05-01T13:26:36.161Z,19.70
2023-05-01T13:29:08.198Z,19.70
2023-05-01T13:31:39.905Z,19.70
2023-05-01T13:34:10.731Z,19.71
2023-05-01T13:36:44.296Z,19.71
2023-05-01T13:39:21.565Z,19.72
2023-05-01T13:41:53.313Z,19.70
2023-05-01T13:44:24.584Z,19.69
2023-05-01T13:46:55.442Z,19.66
2023-05-01T13:49:29.168Z,19.68
2023-05-01T13:52:00.026Z,19.68
2023-05-01T13:54:30.791Z,19.69
2023-05-01T13:57:03.434Z,19.69
2023-05-01T13:59:38.300Z,19.69
2023-05-01T14:02:20.343Z,19.71
2023-05-01T14:04:51.924Z,19.72
2023-05-01T14:07:24.770Z,19.73
2023-05-01T14:09:57.262Z,19.71
2023-05-01T14:12:30.515Z,19.73
2023-05-01T14:15:03.461Z,19.73
2023-05-01T14:17:37.924Z,19.76
2023-05-01T14:20:10.638Z,19.77
2023-05-01T14:22:47.184Z,19.79
2023-05-01T14:25:26.503Z,19.80
2023-05-01T14:27:59.607Z,19.80
2023-05-01T14:30:33.800Z,19.82
2023-05-01T14:33:06.412Z,19.82
2023-05-01T14:35:38.086Z,19.84
2023-05-01T14:38:13.804Z,19.83
2023-05-01T14:40:45.424Z,19.84
2023-05-01T14:43:18.492Z,19.87
2023-05-01T14:45:50.298Z,19.89
2023-05-01T14:48:24.603Z,19.88
2023-05-01T14:50:56.054Z,19.87
2023-05-01T14:53:27.767Z,19.87
2023-05-01T14:55:58.849Z,19.86
2023-05-01T14:58:29.993Z,19.84
2023-05-01T15:01:02.601Z,19.82
2023-05-01T15:03:36.333Z,19.81
2023-05-01T15:06:07.684Z,19.81
2023-05-01T15:08:39.511Z,19.82
2023-05-01T15:11:11.676Z,19.87
2023-05-01T15:13:44.550Z,19.91
2023-05-01T15:16:15.806Z,19.91
2023-05-01T15:18:46.990Z,19.99
2023-05-01T15:21:18.620Z,20.02
2023-05-01T15:23:49.560Z,20.05
2023-05-01T15:26:20.803Z,20.08
2023-05-01T15:28:51.890Z,20.08
2023-05-01T15:31:23.234Z,20.13
2023-05-01T15:33:54.401Z,20.17
2023-05-01T15:36:27.214Z,20.19
2023-05-01T15:38:58.058Z,20.20
2023-05-01T15:41:28.822Z,20.22
2023-05-01T15:43:59.662Z,20.24
2023-05-01T15:46:30.784Z,20.26
2023-05-01T15:49:01.646Z,20.27
2023-05-01T15:51:33.296Z,20.29
2023-05-01T15:54:04.315Z,20.27
2023-05-01T15:56:38.354Z,20.31
2023-05-01T15:59:09.928Z,20.32
2023-05-01T16:01:41.477Z,20.34
2023-05-01T16:04:12.656Z,20.34
2023-05-01T16:06:44.709Z,20.35
2023-05-01T16:09:15.716Z,20.36
2023-05-01T16:11:47.310Z,20.37
2023-05-01T16:14:19.126Z,20.40
2023-05-01T16:16:50.899Z,20.48
2023-05-01T16:19:21.947Z,20.50
2023-05-01T16:21:53.209Z,20.52
2023-05-01T16:24:24.392Z,20.52
2023-05-01T16:26:55.616Z,20.53
2023-05-01T16:29:27.217Z,20.54
2023-05-01T16:31:58.125Z,20.55
2023-05-01T16:34:29.445Z,20.55
2023-05-01T16:37:00.516Z,20.54
2023-05-01T16:39:32.056Z,20.57
2023-05-01T16:42:04.243Z,20.59
2023-05-01T16:44:38.029Z,20.61
2023-05-01T16:47:07.657Z,20.60
2023-05-01T16:49:41.355Z,20.61
2023-05-01T16:52:14.331Z,20.63
2023-05-01T16:54:45.649Z,20.65
2023-05-01T16:57:17.290Z,20.65
2023-05-01T16:59:48.738Z,20.66
2023-05-01T17:02:20.484Z,20.68
2023-05-01T17:04:51.945Z,20.69
2023-05-01T17:07:24.541Z,20.70
2023-05-01T17:09:55.606Z,20.72
2023-05-01T17:12:27.919Z,20.73
2023-05-01T17:14:58.974Z,20.74
2023-05-01T17:17:30.207Z,20.75
2023-05-01T17:20:02.767Z,20.76
2023-05-01T17:22:34.471Z,20.76
2023-05-01T17:25:06.287Z,20.76
2023-05-01T17:27:37.824Z,20.76
2023-05-01T17:30:11.414Z,20.77
2023-05-01T17:32:43.192Z,20.77
2023-05-01T17:35:15.971Z,20.78
2023-05-01T17:37:47.550Z,20.79
2023-05-01T17:40:19.297Z,20.80
2023-05-01T17:42:50.327Z,20.80
2023-05-01T17:45:21.716Z,20.81
2023-05-01T17:47:53.914Z,20.81
2023-05-01T17:50:25.071Z,20.80
2023-05-01T17:52:56.808Z,20.83
2023-05-01T17:55:28.175Z,20.84
2023-05-01T17:57:59.356Z,20.84
2023-05-01T18:00:31.393Z,20.84
2023-05-01T18:03:04.940Z,20.85
2023-05-01T18:05:36.303Z,20.86
2023-05-01T18:08:08.169Z,20.86
2023-05-01T18:10:40.008Z,20.86
2023-05-01T18:13:12.718Z,20.87
2023-05-01T18:15:45.308Z,20.87
2023-05-01T18:18:16.813Z,20.88
2023-05-01T18:20:48.975Z,20.86
2023-05-01T18:23:21.177Z,20.86
2023-05-01T18:25:52.721Z,20.86
2023-05-01T18:28:23.895Z,20.86
2023-05-01T18:30:55.461Z,20.86
2023-05-01T18:33:26.982Z,20.86
2023-05-01T18:35:58.569Z,20.86
2023-05-01T18:38:29.584Z,20.85
2023-05-01T18:41:00.970Z,20.85
2023-05-01T18:43:32.742Z,20.85
2023-05-01T18:46:04.093Z,20.84
2023-05-01T18:48:35.173Z,20.85
2023-05-01T18:51:09.268Z,20.84
2023-05-01T18:53:40.968Z,20.84
2023-05-01T18:56:12.340Z,20.84
2023-05-01T18:58:43.522Z,20.84
2023-05-01T19:01:14.848Z,20.84
2023-05-01T19:03:46.154Z,20.84
2023-05-01T19:06:18.039Z,20.85
2023-05-01T19:08:49.067Z,20.86
2023-05-01T19:11:20.154Z,20.86
2023-05-01T19:13:52.041Z,20.87
2023-05-01T19:16:23.428Z,20.87
2023-05-01T19:18:54.792Z,20.86
2023-05-01T19:21:26.790Z,20.87
2023-05-01T19:23:58.410Z,20.86
2023-05-01T19:26:31.996Z,20.86
2023-05-01T19:29:03.064Z,20.86
2023-05-01T19:31:34.058Z,20.85
2023-05-01T19:34:05.269Z,20.85
2023-05-01T19:36:36.610Z,20.84
2023-05-01T19:39:08.000Z,20.85
2023-05-01T19:41:39.521Z,20.84
2023-05-01T19:44:10.737Z,20.84
2023-05-01T19:46:41.595Z,20.83
2023-05-01T19:49:13.548Z,20.83
2023-05-01T19:51:44.358Z,20.82
2023-05-01T19:54:15.137Z,20.82
2023-05-01T19:56:49.779Z,20.82
2023-05-01T19:59:22.206Z,20.81
2023-05-01T20:01:53.979Z,20.80
2023-05-01T20:04:25.679Z,20.80
2023-05-01T20:06:56.996Z,20.78
2023-05-01T20:09:28.519Z,20.76
2023-05-01T20:12:00.269Z,20.76
2023-05-01T20:14:33.967Z,20.76
2023-05-01T20:17:07.380Z,20.75
2023-05-01T20:19:39.805Z,20.74
2023-05-01T20:22:11.322Z,20.72
2023-05-01T20:24:42.649Z,20.71
2023-05-01T20:27:13.975Z,20.70
2023-05-01T20:29:45.025Z,20.68
2023-05-01T20:32:16.617Z,20.67
2023-05-01T20:34:48.049Z,20.67
2023-05-01T20:37:19.366Z,20.66
2023-05-01T20:39:50.363Z,20.65
2023-05-01T20:42:21.310Z,20.64
2023-05-01T20:44:54.771Z,20.62
2023-05-01T20:47:25.951Z,20.60
2023-05-01T20:49:57.957Z,20.57
2023-05-01T20:52:29.457Z,20.54
2023-05-01T20:55:00.825Z,20.53
2023-05-01T20:57:32.420Z,20.53
2023-05-01T21:00:04.419Z,20.51
2023-05-01T21:02:37.830Z,20.51
2023-05-01T21:05:10.902Z,20.49
2023-05-01T21:07:42.401Z,20.48
2023-05-01T21:10:16.661Z,20.47
2023-05-01T21:12:47.850Z,20.46
2023-05-01T21:15:19.182Z,20.45
2023-05-01T21:17:50.589Z,20.44
2023-05-01T21:20:33.644Z,20.44
2023-05-01T21:23:04.664Z,20.41
2023-05-01T21:25:35.803Z,20.39
2023-05-01T21:28:07.294Z,20.40
2023-05-01T21:30:38.818Z,20.41
2023-05-01T21:33:14.475Z,20.39
2023-05-01T21:35:46.915Z,20.39
2023-05-01T21:38:18.004Z,20.38
2023-05-01T21:40:49.078Z,20.37
2023-05-01T21:43:21.825Z,20.35
2023-05-01T21:45:52.753Z,20.34
2023-05-01T21:48:23.908Z,20.33
2023-05-01T21:50:54.948Z,20.31
2023-05-01T21:53:26.155Z,20.28
2023-05-01T21:55:57.087Z,20.29
2023-05-01T21:58:29.258Z,20.25
2023-05-01T22:01:00.035Z,20.26
2023-05-01T22:03:31.358Z,20.27
2023-05-01T22:06:02.362Z,20.27
2023-05-01T22:08:33.102Z,20.26
2023-05-01T22:11:05.480Z,20.25
2023-05-01T22:13:38.076Z,20.24
2023-05-01T22:16:10.382Z,20.23
2023-05-01T22:18:41.304Z,20.23
2023-05-01T22:21:12.513Z,20.24
2023-05-01T22:23:43.399Z,20.24
2023-05-01T22:26:14.665Z,20.23
2023-05-01T22:28:45.911Z,20.23
2023-05-01T22:31:16.949Z,20.22
2023-05-01T22:33:48.151Z,20.21
2023-05-01T22:36:18.966Z,20.21
2023-05-01T22:38:49.924Z,20.20
2023-05-01T22:41:20.690Z,20.21
2023-05-01T22:43:51.960Z,20.21
2023-05-01T22:46:23.259Z,20.21
2023-05-01T22:48:55.287Z,20.21
2023-05-01T22:51:27.548Z,20.20
2023-05-01T22:53:58.405Z,20.20
2023-05-01T22:56:29.517Z,20.20
2023-05-01T22:59:00.262Z,20.20
2023-05-01T23:01:31.213Z,20.20
2023-05-01T23:04:02.567Z,20.20
2023-05-01T23:06:34.062Z,20.19
2023-05-01T23:09:05.229Z,20.19
2023-05-01T23:11:36.728Z,20.18
2023-05-01T23:14:09.746Z,20.16
2023-05-01T23:16:43.303Z,20.16
2023-05-01T23:19:22.013Z,20.14
2023-05-01T23:22:04.878Z,20.13
2023-05-01T23:24:47.668Z,20.12
2023-05-01T23:27:19.983Z,20.12
2023-05-01T23:29:56.613Z,20.10
2023-05-01T23:32:30.192Z,20.10
2023-05-01T23:35:04.320Z,20.08
2023-05-01T23:37:35.587Z,20.09
2023-05-01T23:40:07.862Z,20.08
2023-05-01T23:42:39.251Z,20.07
2023-05-01T23:45:11.261Z,20.09
2023-05-01T23:47:42.048Z,20.10
2023-05-01T23:50:13.273Z,20.10
2023-05-01T23:52:44.387Z,20.11
2023-05-01T23:55:15.140Z,20.13
2023-05-01T23:57:45.903Z,20.14
